Time;durP1;ratioP1;P1;durP2;ratioP2;P2;SDS_P1;SDS_P2;PMS_P1;PMS_P2;Temp;Humidity;BMP_temperature;BMP_pressure;BME280_temperature;BME280_humidity;BME280_pressure;Samples;Min_cycle;Max_cycle;Signal;HPM_P1;HPM_P2
2022/07/17 00:00:45;;;;;;;4.97;1.83;;;;;;;;;;5001030;28;20025;-68
2022/07/17 00:03:12;;;;;;;3.75;1.70;;;;;;;;;;5008502;28;20025;-68
2022/07/17 00:05:37;;;;;;;5.78;1.70;;;;;;;;;;5009336;28;20513;-68
2022/07/17 00:08:03;;;;;;;4.03;1.58;;;;;;;;;;5008523;28;20021;-68
2022/07/17 00:10:28;;;;;;;4.07;2.00;;;;;;;;;;5010445;28;20065;-68
2022/07/17 00:12:53;;;;;;;3.78;1.63;;;;;;;;;;5009399;28;20441;-68
2022/07/17 00:15:19;;;;;;;7.93;2.30;;;;;;;;;;5009469;28;20512;-68
2022/07/17 00:17:44;;;;;;;11.95;2.08;;;;;;;;;;5008021;28;20273;-68
2022/07/17 00:20:10;;;;;;;8.18;2.17;;;;;;;;;;5009429;28;20509;-68
2022/07/17 00:22:35;;;;;;;3.58;1.65;;;;;;;;;;5006037;28;20452;-67
2022/07/17 00:25:00;;;;;;;5.75;2.10;;;;;;;;;;5007904;28;20018;-68
2022/07/17 00:27:25;;;;;;;7.00;1.58;;;;;;;;;;5010048;28;20021;-68
2022/07/17 00:29:50;;;;;;;9.57;1.73;;;;;;;;;;5009254;28;20426;-68
2022/07/17 00:32:16;;;;;;;6.38;1.42;;;;;;;;;;5009015;28;20324;-68
2022/07/17 00:34:42;;;;;;;3.78;1.55;;;;;;;;;;5008234;28;20113;-68
2022/07/17 00:37:07;;;;;;;6.78;1.70;;;;;;;;;;5010626;28;20065;-67
2022/07/17 00:39:32;;;;;;;7.35;1.70;;;;;;;;;;5008846;28;20076;-67
2022/07/17 00:41:57;;;;;;;7.17;1.80;;;;;;;;;;5008961;28;20028;-68
2022/07/17 00:44:25;;;;;;;3.85;1.80;;;;;;;;;;5008662;28;20272;-68
2022/07/17 00:46:50;;;;;;;8.98;2.22;;;;;;;;;;5009124;28;20449;-67
2022/07/17 00:49:15;;;;;;;8.43;1.47;;;;;;;;;;5008114;28;20095;-67
2022/07/17 00:51:40;;;;;;;6.20;2.17;;;;;;;;;;5009776;28;20272;-67
2022/07/17 00:54:06;;;;;;;6.73;1.83;;;;;;;;;;4996464;28;20466;-68
2022/07/17 00:56:31;;;;;;;7.03;1.90;;;;;;;;;;5009451;28;20026;-67
2022/07/17 00:58:56;;;;;;;5.18;1.80;;;;;;;;;;5008094;28;20018;-67
2022/07/17 01:01:21;;;;;;;4.03;1.67;;;;;;;;;;5007876;28;20394;-67
2022/07/17 01:03:47;;;;;;;3.50;1.33;;;;;;;;;;5008685;28;20330;-68
2022/07/17 01:06:12;;;;;;;5.23;1.50;;;;;;;;;;5009291;28;20398;-68
2022/07/17 01:08:37;;;;;;;8.70;1.42;;;;;;;;;;5008529;28;20431;-68
2022/07/17 01:11:03;;;;;;;7.20;1.67;;;;;;;;;;5009815;28;20025;-67
2022/07/17 01:13:29;;;;;;;7.82;1.70;;;;;;;;;;5007479;28;20037;-68
2022/07/17 01:15:54;;;;;;;4.68;1.50;;;;;;;;;;5004239;28;20033;-68
2022/07/17 01:18:19;;;;;;;4.38;1.40;;;;;;;;;;5010649;28;20029;-67
2022/07/17 01:20:47;;;;;;;6.85;1.67;;;;;;;;;;5014286;28;20022;-68
2022/07/17 01:23:12;;;;;;;5.25;1.45;;;;;;;;;;5012458;28;20023;-68
2022/07/17 01:25:37;;;;;;;5.38;2.22;;;;;;;;;;5011700;28;20051;-68
2022/07/17 01:28:03;;;;;;;4.30;2.03;;;;;;;;;;5010968;28;20482;-68
2022/07/17 01:30:29;;;;;;;11.02;2.10;;;;;;;;;;5013105;28;20291;-68
2022/07/17 01:32:54;;;;;;;5.22;2.58;;;;;;;;;;5013250;28;20055;-68
2022/07/17 01:35:19;;;;;;;5.15;1.30;;;;;;;;;;5012409;28;20429;-67
2022/07/17 01:37:44;;;;;;;3.57;1.80;;;;;;;;;;5013219;28;20036;-67
2022/07/17 01:40:14;;;;;;;3.47;1.35;;;;;;;;;;5009355;28;20285;-67
2022/07/17 01:42:42;;;;;;;6.50;1.70;;;;;;;;;;5010212;28;20036;-67
2022/07/17 01:45:07;;;;;;;3.38;1.40;;;;;;;;;;5012980;28;20037;-67
2022/07/17 01:47:34;;;;;;;6.45;2.65;;;;;;;;;;5011807;28;20076;-68
2022/07/17 01:49:59;;;;;;;4.43;1.50;;;;;;;;;;5012165;28;20021;-67
2022/07/17 01:52:25;;;;;;;3.28;1.38;;;;;;;;;;5011897;28;20520;-67
2022/07/17 01:54:50;;;;;;;7.82;1.80;;;;;;;;;;5012261;28;20026;-67
2022/07/17 01:57:15;;;;;;;3.00;1.52;;;;;;;;;;5011762;28;20033;-67
2022/07/17 01:59:41;;;;;;;4.07;2.00;;;;;;;;;;5013176;28;20026;-67
2022/07/17 02:02:06;;;;;;;6.72;1.70;;;;;;;;;;5011947;28;20283;-68
2022/07/17 02:04:32;;;;;;;7.60;2.25;;;;;;;;;;5004114;28;20033;-68
2022/07/17 02:06:57;;;;;;;4.85;1.27;;;;;;;;;;5012763;28;20021;-68
2022/07/17 02:09:23;;;;;;;3.83;2.00;;;;;;;;;;5011958;28;20032;-68
2022/07/17 02:11:48;;;;;;;7.40;1.88;;;;;;;;;;5011876;28;20252;-67
2022/07/17 02:14:13;;;;;;;8.80;1.85;;;;;;;;;;5012973;28;20021;-67
2022/07/17 02:16:38;;;;;;;4.85;2.00;;;;;;;;;;5010533;28;21066;-68
2022/07/17 02:19:03;;;;;;;4.97;1.70;;;;;;;;;;5011706;28;20586;-67
2022/07/17 02:21:29;;;;;;;8.53;1.80;;;;;;;;;;5011841;28;20280;-67
2022/07/17 02:23:54;;;;;;;4.30;1.45;;;;;;;;;;5011107;28;20965;-67
2022/07/17 02:26:19;;;;;;;5.82;1.80;;;;;;;;;;5011040;28;20022;-67
2022/07/17 02:28:44;;;;;;;4.75;2.05;;;;;;;;;;5011103;28;20510;-67
2022/07/17 02:31:09;;;;;;;6.40;2.00;;;;;;;;;;5009663;28;20028;-66
2022/07/17 02:33:35;;;;;;;6.28;1.50;;;;;;;;;;5010834;28;20617;-67
2022/07/17 02:36:01;;;;;;;3.47;1.30;;;;;;;;;;5010990;28;20493;-67
2022/07/17 02:38:26;;;;;;;9.02;2.00;;;;;;;;;;5008634;28;20022;-67
2022/07/17 02:40:51;;;;;;;2.80;1.55;;;;;;;;;;5008625;28;20386;-67
2022/07/17 02:43:16;;;;;;;4.53;2.00;;;;;;;;;;5011862;28;20018;-67
2022/07/17 02:45:42;;;;;;;5.30;1.50;;;;;;;;;;5011356;28;20864;-66
2022/07/17 02:48:07;;;;;;;6.22;2.13;;;;;;;;;;5011981;28;20279;-67
2022/07/17 02:50:32;;;;;;;6.63;1.90;;;;;;;;;;5010331;28;20038;-67
2022/07/17 02:52:57;;;;;;;5.60;1.42;;;;;;;;;;5010400;28;20316;-67
2022/07/17 02:55:23;;;;;;;5.63;1.60;;;;;;;;;;5011175;28;20105;-67
2022/07/17 02:57:48;;;;;;;5.82;1.63;;;;;;;;;;5010303;28;21648;-67
2022/07/17 03:00:15;;;;;;;20.88;2.13;;;;;;;;;;5011718;28;20030;-67
2022/07/17 03:02:40;;;;;;;3.45;1.00;;;;;;;;;;5010763;28;20022;-67
2022/07/17 03:05:06;;;;;;;10.05;1.75;;;;;;;;;;5011983;28;20018;-67
2022/07/17 03:07:31;;;;;;;6.00;1.60;;;;;;;;;;5008716;28;20018;-67
2022/07/17 03:09:56;;;;;;;9.90;1.57;;;;;;;;;;5010166;28;20022;-67
2022/07/17 03:12:21;;;;;;;3.40;1.48;;;;;;;;;;5010963;28;20622;-67
2022/07/17 03:14:46;;;;;;;4.17;1.47;;;;;;;;;;5011232;28;20513;-67
2022/07/17 03:17:11;;;;;;;3.73;1.70;;;;;;;;;;5010078;28;20323;-67
2022/07/17 03:19:37;;;;;;;7.63;1.50;;;;;;;;;;5012029;28;20620;-67
2022/07/17 03:22:02;;;;;;;4.82;1.60;;;;;;;;;;5009130;28;20300;-67
2022/07/17 03:24:27;;;;;;;6.27;1.53;;;;;;;;;;5012106;28;20103;-67
2022/07/17 03:26:52;;;;;;;6.45;1.67;;;;;;;;;;5010420;28;20634;-67
2022/07/17 03:29:18;;;;;;;11.97;1.80;;;;;;;;;;5010902;28;20025;-67
2022/07/17 03:31:43;;;;;;;4.05;1.15;;;;;;;;;;5009044;28;20350;-67
2022/07/17 03:34:09;;;;;;;2.45;1.30;;;;;;;;;;5020638;23;20047;-70
2022/07/17 03:36:34;;;;;;;6.97;1.73;;;;;;;;;;4988216;28;20023;-70
2022/07/17 03:38:59;;;;;;;4.93;1.50;;;;;;;;;;4989983;28;20113;-70
2022/07/17 03:41:25;;;;;;;6.97;1.92;;;;;;;;;;4988136;28;20289;-70
2022/07/17 03:43:51;;;;;;;5.18;1.67;;;;;;;;;;4991633;28;20521;-70
2022/07/17 03:46:16;;;;;;;3.17;1.70;;;;;;;;;;4988642;28;20222;-70
2022/07/17 03:48:41;;;;;;;9.20;1.90;;;;;;;;;;4988961;28;20398;-70
2022/07/17 03:51:06;;;;;;;7.53;1.70;;;;;;;;;;4989915;28;20372;-70
2022/07/17 03:53:31;;;;;;;4.37;1.73;;;;;;;;;;4990893;28;20300;-70
2022/07/17 03:55:56;;;;;;;6.15;1.73;;;;;;;;;;4990943;28;20293;-70
2022/07/17 03:58:22;;;;;;;4.37;1.57;;;;;;;;;;4990441;28;20038;-70
2022/07/17 04:00:47;;;;;;;7.37;1.93;;;;;;;;;;4990801;28;20265;-70
2022/07/17 04:03:12;;;;;;;8.50;1.60;;;;;;;;;;4989304;28;20281;-70
2022/07/17 04:05:37;;;;;;;4.50;1.97;;;;;;;;;;4988228;28;20034;-70
2022/07/17 04:08:02;;;;;;;7.70;1.70;;;;;;;;;;4989425;28;20754;-70
2022/07/17 04:10:27;;;;;;;3.28;1.48;;;;;;;;;;4990503;28;20270;-70
2022/07/17 04:12:53;;;;;;;10.50;2.28;;;;;;;;;;4989717;28;20019;-71
2022/07/17 04:15:49;;;;;;;3.00;1.60;;;;;;;;;;4989131;28;20042;-70
2022/07/17 04:18:03;;;;;;;5.63;1.50;;;;;;;;;;4989129;28;20281;-70
2022/07/17 04:20:28;;;;;;;4.97;1.98;;;;;;;;;;4989790;28;20022;-70
2022/07/17 04:22:54;;;;;;;3.85;1.52;;;;;;;;;;4989708;28;20010;-70
2022/07/17 04:25:19;;;;;;;6.87;1.67;;;;;;;;;;4979917;28;20034;-70
2022/07/17 04:27:44;;;;;;;5.83;1.40;;;;;;;;;;4990392;28;20274;-70
2022/07/17 04:30:09;;;;;;;9.07;1.77;;;;;;;;;;4989461;28;20293;-70
2022/07/17 04:32:34;;;;;;;7.32;1.75;;;;;;;;;;4988228;28;20280;-70
2022/07/17 04:34:59;;;;;;;3.13;1.23;;;;;;;;;;4989801;28;20379;-70
2022/07/17 04:37:25;;;;;;;7.57;1.70;;;;;;;;;;4989379;28;20277;-70
2022/07/17 04:39:50;;;;;;;3.97;1.50;;;;;;;;;;4989674;28;20025;-71
2022/07/17 04:42:15;;;;;;;9.03;1.93;;;;;;;;;;4989298;28;20030;-70
2022/07/17 04:44:40;;;;;;;11.50;1.80;;;;;;;;;;4987886;28;20355;-70
2022/07/17 04:47:05;;;;;;;7.13;1.70;;;;;;;;;;4992460;28;20637;-70
2022/07/17 04:49:30;;;;;;;6.05;1.48;;;;;;;;;;4988025;28;20277;-70
2022/07/17 04:51:56;;;;;;;6.30;1.30;;;;;;;;;;4990111;28;20026;-70
2022/07/17 04:54:21;;;;;;;7.67;2.30;;;;;;;;;;4988565;28;20030;-70
2022/07/17 04:56:46;;;;;;;5.53;1.70;;;;;;;;;;4991071;28;20276;-70
2022/07/17 04:59:11;;;;;;;9.87;2.30;;;;;;;;;;4987389;28;20285;-70
2022/07/17 05:01:36;;;;;;;6.90;1.27;;;;;;;;;;4989390;28;20365;-70
2022/07/17 05:04:02;;;;;;;3.93;2.30;;;;;;;;;;4989343;28;20031;-70
2022/07/17 05:06:27;;;;;;;3.05;1.50;;;;;;;;;;4989753;28;20273;-70
2022/07/17 05:08:52;;;;;;;10.02;1.63;;;;;;;;;;4989571;28;20073;-70
2022/07/17 05:11:17;;;;;;;7.82;1.75;;;;;;;;;;4989366;28;20022;-71
2022/07/17 05:13:43;;;;;;;3.97;1.48;;;;;;;;;;4987389;28;20045;-70
2022/07/17 05:16:08;;;;;;;4.53;1.27;;;;;;;;;;4990035;28;20097;-70
2022/07/17 05:18:33;;;;;;;6.53;1.98;;;;;;;;;;4988785;28;20310;-70
2022/07/17 05:20:58;;;;;;;4.43;1.40;;;;;;;;;;4989768;28;20021;-70
2022/07/17 05:23:24;;;;;;;4.88;1.58;;;;;;;;;;4988963;28;20047;-70
2022/07/17 05:25:49;;;;;;;7.75;1.42;;;;;;;;;;4989115;28;20037;-70
2022/07/17 05:28:14;;;;;;;4.75;1.20;;;;;;;;;;4987789;28;20030;-70
2022/07/17 05:30:39;;;;;;;6.20;1.20;;;;;;;;;;4988870;28;20537;-70
2022/07/17 05:33:04;;;;;;;4.97;1.25;;;;;;;;;;4974063;28;20270;-71
2022/07/17 05:35:31;;;;;;;4.60;1.27;;;;;;;;;;4988571;28;20026;-71
2022/07/17 05:37:56;;;;;;;4.00;1.33;;;;;;;;;;4990987;28;20268;-70
2022/07/17 05:40:21;;;;;;;5.23;1.80;;;;;;;;;;4986899;28;20026;-70
2022/07/17 05:42:46;;;;;;;3.33;1.50;;;;;;;;;;4989308;28;20750;-70
2022/07/17 05:45:12;;;;;;;7.63;1.47;;;;;;;;;;4988225;28;20037;-70
2022/07/17 05:47:37;;;;;;;5.43;1.57;;;;;;;;;;4990704;28;20262;-70
2022/07/17 05:50:02;;;;;;;5.53;2.07;;;;;;;;;;4988252;28;20390;-70
2022/07/17 05:52:27;;;;;;;3.42;1.15;;;;;;;;;;4989944;28;20269;-70
2022/07/17 05:54:53;;;;;;;3.70;1.30;;;;;;;;;;4986850;28;20028;-70
2022/07/17 05:57:18;;;;;;;12.95;1.73;;;;;;;;;;4989410;28;20278;-70
2022/07/17 05:59:43;;;;;;;4.80;1.30;;;;;;;;;;4988193;28;20041;-70
2022/07/17 06:02:08;;;;;;;2.72;1.33;;;;;;;;;;4989287;28;20025;-70
2022/07/17 06:04:33;;;;;;;6.50;1.58;;;;;;;;;;4989346;28;20463;-70
2022/07/17 06:06:59;;;;;;;3.93;1.47;;;;;;;;;;4994199;28;20276;-70
2022/07/17 06:09:24;;;;;;;13.63;1.75;;;;;;;;;;4989347;28;20887;-70
2022/07/17 06:11:49;;;;;;;5.95;1.52;;;;;;;;;;4989738;28;20105;-70
2022/07/17 06:14:15;;;;;;;4.17;2.10;;;;;;;;;;4990573;28;20030;-70
2022/07/17 06:16:40;;;;;;;6.07;1.77;;;;;;;;;;4993729;28;20809;-70
2022/07/17 06:19:05;;;;;;;4.72;2.08;;;;;;;;;;4991132;28;20025;-70
2022/07/17 06:21:30;;;;;;;4.50;1.35;;;;;;;;;;4991641;28;20545;-70
2022/07/17 06:23:55;;;;;;;5.18;1.63;;;;;;;;;;4991450;28;20014;-70
2022/07/17 06:26:21;;;;;;;7.78;1.55;;;;;;;;;;4991333;28;20080;-70
2022/07/17 06:28:46;;;;;;;3.27;1.43;;;;;;;;;;4992481;28;20101;-70
2022/07/17 06:31:11;;;;;;;6.40;1.40;;;;;;;;;;4992664;28;20274;-70
2022/07/17 06:33:36;;;;;;;6.47;2.13;;;;;;;;;;4992013;28;20830;-70
2022/07/17 06:36:02;;;;;;;6.55;1.55;;;;;;;;;;4991995;28;20277;-70
2022/07/17 06:38:27;;;;;;;6.88;1.70;;;;;;;;;;4991514;28;20037;-70
2022/07/17 06:40:52;;;;;;;9.38;1.73;;;;;;;;;;4990834;28;20490;-70
2022/07/17 06:43:17;;;;;;;7.80;1.50;;;;;;;;;;4992559;28;20045;-70
2022/07/17 06:45:42;;;;;;;6.82;2.17;;;;;;;;;;4990973;28;20269;-70
2022/07/17 06:48:08;;;;;;;4.20;1.50;;;;;;;;;;4993120;28;20289;-70
2022/07/17 06:50:34;;;;;;;5.05;1.25;;;;;;;;;;4991467;28;20309;-70
2022/07/17 06:52:59;;;;;;;4.27;1.43;;;;;;;;;;4993051;28;20034;-70
2022/07/17 06:55:24;;;;;;;6.43;1.60;;;;;;;;;;4991430;28;20085;-70
2022/07/17 06:57:49;;;;;;;4.10;1.50;;;;;;;;;;4991510;28;20030;-70
2022/07/17 07:00:15;;;;;;;2.22;1.02;;;;;;;;;;4989690;28;20824;-70
2022/07/17 07:02:40;;;;;;;3.97;1.35;;;;;;;;;;4991737;28;20022;-70
2022/07/17 07:05:05;;;;;;;5.00;1.10;;;;;;;;;;4992382;28;20011;-70
2022/07/17 07:07:30;;;;;;;5.32;1.40;;;;;;;;;;4992661;28;20029;-70
2022/07/17 07:09:56;;;;;;;6.82;1.33;;;;;;;;;;4990570;28;20045;-70
2022/07/17 07:12:21;;;;;;;7.30;2.27;;;;;;;;;;4991303;28;20117;-70
2022/07/17 07:14:46;;;;;;;5.43;1.20;;;;;;;;;;4991580;28;20030;-70
2022/07/17 07:17:11;;;;;;;5.30;1.20;;;;;;;;;;4991346;28;20281;-70
2022/07/17 07:19:37;;;;;;;4.93;1.10;;;;;;;;;;4991325;28;20589;-70
2022/07/17 07:22:02;;;;;;;5.22;1.30;;;;;;;;;;4991269;28;20282;-70
2022/07/17 07:24:27;;;;;;;9.93;1.67;;;;;;;;;;4990965;28;20068;-70
2022/07/17 07:26:52;;;;;;;11.33;1.67;;;;;;;;;;4990624;28;20441;-70
2022/07/17 07:29:17;;;;;;;9.37;1.17;;;;;;;;;;4988850;28;20296;-70
2022/07/17 07:31:43;;;;;;;3.35;1.02;;;;;;;;;;4990616;28;20041;-70
2022/07/17 07:34:08;;;;;;;3.05;1.33;;;;;;;;;;4987657;28;20076;-69
2022/07/17 07:36:33;;;;;;;3.13;1.27;;;;;;;;;;4989656;28;20030;-71
2022/07/17 07:38:58;;;;;;;2.28;0.93;;;;;;;;;;4988706;28;20083;-69
2022/07/17 07:41:24;;;;;;;5.72;1.40;;;;;;;;;;4970595;28;20030;-69
2022/07/17 07:43:49;;;;;;;5.82;1.38;;;;;;;;;;4987328;28;20014;-69
2022/07/17 07:46:14;;;;;;;5.40;1.30;;;;;;;;;;4986891;28;20022;-70
2022/07/17 07:48:40;;;;;;;3.67;0.80;;;;;;;;;;4986989;28;20277;-70
2022/07/17 07:51:05;;;;;;;2.92;0.90;;;;;;;;;;4985842;28;20026;-69
2022/07/17 07:53:30;;;;;;;6.70;0.88;;;;;;;;;;4991902;28;20018;-69
2022/07/17 07:55:55;;;;;;;2.77;0.93;;;;;;;;;;4990845;28;20084;-69
2022/07/17 07:58:20;;;;;;;2.53;1.00;;;;;;;;;;4989805;28;20035;-69
2022/07/17 08:00:46;;;;;;;3.13;1.20;;;;;;;;;;4989711;28;20120;-69
2022/07/17 08:03:12;;;;;;;4.50;1.10;;;;;;;;;;4989543;28;20305;-69
2022/07/17 08:05:37;;;;;;;3.20;1.60;;;;;;;;;;4988906;28;20502;-69
2022/07/17 08:08:02;;;;;;;3.57;0.97;;;;;;;;;;4989956;28;20019;-69
2022/07/17 08:10:27;;;;;;;6.70;1.08;;;;;;;;;;4990492;28;20296;-69
2022/07/17 08:12:53;;;;;;;4.20;0.85;;;;;;;;;;4990557;28;20041;-71
2022/07/17 08:15:19;;;;;;;3.58;1.08;;;;;;;;;;4984440;28;20923;-70
2022/07/17 08:17:45;;;;;;;4.22;1.20;;;;;;;;;;4985476;28;20074;-69
2022/07/17 08:20:10;;;;;;;4.53;0.82;;;;;;;;;;4987959;28;20026;-70
2022/07/17 08:22:36;;;;;;;3.60;1.20;;;;;;;;;;4988223;28;20174;-70
2022/07/17 08:25:01;;;;;;;3.65;1.23;;;;;;;;;;4989477;28;20030;-69
2022/07/17 08:27:26;;;;;;;6.37;1.53;;;;;;;;;;4987436;28;20028;-70
2022/07/17 08:29:51;;;;;;;3.47;0.83;;;;;;;;;;4984828;28;20014;-69
2022/07/17 08:32:16;;;;;;;3.63;0.80;;;;;;;;;;4987763;28;20288;-70
2022/07/17 08:34:41;;;;;;;7.90;1.00;;;;;;;;;;4985544;28;20529;-70
2022/07/17 08:37:06;;;;;;;3.30;0.97;;;;;;;;;;4982117;28;20038;-70
2022/07/17 08:39:32;;;;;;;4.27;1.07;;;;;;;;;;4986848;28;20539;-70
2022/07/17 08:41:57;;;;;;;2.67;0.97;;;;;;;;;;4985061;28;20030;-70
2022/07/17 08:44:22;;;;;;;3.03;1.10;;;;;;;;;;4987125;28;20416;-70
2022/07/17 08:46:47;;;;;;;9.53;1.00;;;;;;;;;;4986518;28;20037;-70
2022/07/17 08:49:13;;;;;;;4.75;0.90;;;;;;;;;;4988324;28;20253;-70
2022/07/17 08:51:38;;;;;;;5.30;1.35;;;;;;;;;;4988761;28;20038;-70
2022/07/17 08:54:04;;;;;;;7.53;1.47;;;;;;;;;;4988098;28;20490;-70
2022/07/17 08:56:29;;;;;;;3.55;1.17;;;;;;;;;;4986253;28;20026;-70
2022/07/17 08:58:55;;;;;;;7.65;1.45;;;;;;;;;;4986113;28;20391;-70
2022/07/17 09:01:21;;;;;;;4.47;0.90;;;;;;;;;;4985496;28;20014;-70
2022/07/17 09:04:06;;;;;;;7.82;1.50;;;;;;;;;;4968836;28;20471;-69
2022/07/17 09:06:31;;;;;;;9.32;1.17;;;;;;;;;;4971647;28;20034;-69
2022/07/17 09:09:04;;;;;;;3.20;0.65;;;;;;;;;;4983791;28;20026;-69
2022/07/17 09:11:29;;;;;;;9.32;1.63;;;;;;;;;;4984091;28;20026;-69
2022/07/17 09:13:55;;;;;;;6.57;1.08;;;;;;;;;;4980167;28;20541;-69
2022/07/17 09:16:20;;;;;;;11.00;1.97;;;;;;;;;;4978435;28;20026;-69
2022/07/17 09:18:47;;;;;;;5.47;0.90;;;;;;;;;;4983921;28;20615;-69
2022/07/17 09:21:22;;;;;;;4.47;1.13;;;;;;;;;;4982877;28;20015;-69
2022/07/17 09:24:04;;;;;;;4.20;0.93;;;;;;;;;;4987962;28;20042;-69
2022/07/17 09:26:29;;;;;;;2.60;0.80;;;;;;;;;;4977169;28;20022;-70
2022/07/17 09:28:54;;;;;;;2.88;1.02;;;;;;;;;;4988001;28;20026;-69
2022/07/17 09:31:27;;;;;;;5.37;1.00;;;;;;;;;;4984391;28;20093;-69
2022/07/17 09:33:53;;;;;;;6.53;1.15;;;;;;;;;;4986001;28;20289;-70
2022/07/17 09:36:18;;;;;;;9.43;0.90;;;;;;;;;;4989074;28;20033;-69
2022/07/17 09:38:44;;;;;;;4.50;1.10;;;;;;;;;;4988628;28;20022;-69
2022/07/17 09:41:09;;;;;;;8.32;1.48;;;;;;;;;;4994001;28;20041;-69
2022/07/17 09:43:44;;;;;;;4.33;0.90;;;;;;;;;;4994490;28;20455;-70
2022/07/17 09:46:11;;;;;;;4.88;0.82;;;;;;;;;;4992852;28;20428;-69
2022/07/17 09:48:40;;;;;;;4.63;1.00;;;;;;;;;;4993956;28;20030;-69
2022/07/17 09:51:06;;;;;;;6.17;1.20;;;;;;;;;;4993530;28;20029;-69
2022/07/17 09:53:32;;;;;;;12.70;1.75;;;;;;;;;;4994362;28;20101;-70
2022/07/17 09:55:58;;;;;;;4.95;0.95;;;;;;;;;;4994376;28;20015;-70
2022/07/17 09:58:24;;;;;;;7.22;1.35;;;;;;;;;;4994500;28;20471;-70
2022/07/17 10:00:50;;;;;;;8.30;1.08;;;;;;;;;;4993954;28;20031;-70
2022/07/17 10:03:18;;;;;;;4.95;1.42;;;;;;;;;;4993305;28;20104;-69
2022/07/17 10:05:44;;;;;;;6.55;1.27;;;;;;;;;;4991625;28;20041;-69
2022/07/17 10:08:10;;;;;;;3.17;1.10;;;;;;;;;;4993448;28;20110;-70
2022/07/17 10:10:35;;;;;;;9.00;1.40;;;;;;;;;;4993661;28;20471;-69
2022/07/17 10:13:00;;;;;;;5.25;1.10;;;;;;;;;;4994136;28;20049;-69
2022/07/17 10:15:27;;;;;;;7.88;1.65;;;;;;;;;;4993881;28;20478;-69
2022/07/17 10:18:02;;;;;;;6.93;1.05;;;;;;;;;;4992742;28;20030;-70
2022/07/17 10:20:27;;;;;;;5.32;0.80;;;;;;;;;;4989007;28;20076;-70
2022/07/17 10:22:53;;;;;;;4.80;1.10;;;;;;;;;;4993795;28;20026;-69
2022/07/17 10:25:18;;;;;;;5.50;1.33;;;;;;;;;;4994136;28;20030;-69
2022/07/17 10:27:50;;;;;;;9.60;1.30;;;;;;;;;;4993841;28;20502;-69
2022/07/17 10:30:29;;;;;;;3.08;0.90;;;;;;;;;;4993955;28;20057;-69
2022/07/17 10:32:58;;;;;;;7.00;1.42;;;;;;;;;;4992214;28;20022;-69
2022/07/17 10:35:23;;;;;;;6.53;1.63;;;;;;;;;;4993445;28;20483;-69
2022/07/17 10:37:49;;;;;;;5.13;1.10;;;;;;;;;;4992956;28;20030;-69
2022/07/17 10:40:14;;;;;;;5.72;1.05;;;;;;;;;;4993135;28;20026;-70
2022/07/17 10:42:44;;;;;;;3.28;0.80;;;;;;;;;;4993757;28;20026;-69
2022/07/17 10:45:11;;;;;;;7.45;1.27;;;;;;;;;;4994680;28;20033;-69
2022/07/17 10:47:55;;;;;;;12.00;2.55;;;;;;;;;;4991665;28;20479;-69
2022/07/17 10:50:23;;;;;;;5.25;1.05;;;;;;;;;;4987920;28;20026;-70
2022/07/17 10:52:59;;;;;;;10.25;1.80;;;;;;;;;;4992061;28;20045;-70
2022/07/17 10:55:24;;;;;;;6.70;0.90;;;;;;;;;;4993438;28;20026;-69
2022/07/17 10:57:49;;;;;;;6.70;2.40;;;;;;;;;;4991206;28;20030;-69
2022/07/17 11:00:15;;;;;;;6.43;1.30;;;;;;;;;;4992130;28;20482;-70
2022/07/17 11:02:42;;;;;;;8.27;1.10;;;;;;;;;;4990022;28;20474;-70
2022/07/17 11:05:10;;;;;;;4.38;0.90;;;;;;;;;;4990351;28;20018;-69
2022/07/17 11:07:36;;;;;;;5.50;1.15;;;;;;;;;;4988792;28;20014;-69
2022/07/17 11:10:01;;;;;;;5.25;1.05;;;;;;;;;;4990663;28;20033;-69
2022/07/17 11:12:33;;;;;;;7.80;1.10;;;;;;;;;;4992345;28;20026;-69
2022/07/17 11:14:59;;;;;;;3.95;0.90;;;;;;;;;;4993197;28;20084;-69
2022/07/17 11:17:24;;;;;;;5.97;1.27;;;;;;;;;;4991370;28;20026;-69
2022/07/17 11:19:49;;;;;;;2.30;0.83;;;;;;;;;;4992227;28;20058;-69
2022/07/17 11:22:15;;;;;;;5.30;1.00;;;;;;;;;;4992857;28;20021;-70
2022/07/17 11:24:49;;;;;;;5.80;1.55;;;;;;;;;;4992665;28;20750;-69
2022/07/17 11:27:28;;;;;;;7.82;1.80;;;;;;;;;;4992168;28;20052;-69
2022/07/17 11:29:54;;;;;;;5.68;1.67;;;;;;;;;;4991443;28;20054;-70
2022/07/17 11:32:19;;;;;;;3.47;1.20;;;;;;;;;;4990859;28;20037;-69
2022/07/17 11:34:44;;;;;;;3.27;0.90;;;;;;;;;;4992629;28;20034;-69
2022/07/17 11:37:10;;;;;;;4.32;1.27;;;;;;;;;;4990531;28;20073;-69
2022/07/17 11:39:38;;;;;;;5.53;1.15;;;;;;;;;;4991546;28;20069;-70
2022/07/17 11:42:03;;;;;;;4.22;0.98;;;;;;;;;;4990433;28;20030;-70
2022/07/17 11:44:29;;;;;;;4.17;0.80;;;;;;;;;;4988517;28;20022;-69
2022/07/17 11:46:54;;;;;;;5.90;1.30;;;;;;;;;;4988435;28;20034;-71
2022/07/17 11:49:33;;;;;;;4.57;1.10;;;;;;;;;;4991856;28;20281;-69
2022/07/17 11:52:06;;;;;;;8.60;1.38;;;;;;;;;;4987528;28;20376;-70
2022/07/17 11:54:31;;;;;;;2.83;0.90;;;;;;;;;;4991037;28;20041;-69
2022/07/17 11:56:57;;;;;;;3.77;1.03;;;;;;;;;;4992121;28;20026;-70
2022/07/17 11:59:30;;;;;;;4.40;1.65;;;;;;;;;;4989470;28;20161;-70
2022/07/17 12:01:55;;;;;;;3.95;1.10;;;;;;;;;;4986252;28;20026;-70
2022/07/17 12:04:20;;;;;;;4.32;0.90;;;;;;;;;;4989318;28;20501;-69
2022/07/17 12:06:46;;;;;;;2.20;1.00;;;;;;;;;;4991936;28;20104;-69
2022/07/17 12:09:12;;;;;;;6.45;0.93;;;;;;;;;;5009979;28;20021;-69
2022/07/17 12:11:47;;;;;;;4.13;0.85;;;;;;;;;;4991949;28;20545;-69
2022/07/17 12:14:12;;;;;;;6.95;1.20;;;;;;;;;;4990576;28;20102;-70
2022/07/17 12:16:37;;;;;;;2.57;1.00;;;;;;;;;;4990712;28;20173;-69
2022/07/17 12:19:05;;;;;;;6.00;1.03;;;;;;;;;;4990796;28;20033;-69
2022/07/17 12:21:32;;;;;;;2.15;0.60;;;;;;;;;;4989879;28;20027;-69
2022/07/17 12:24:02;;;;;;;4.18;0.75;;;;;;;;;;4991436;28;20026;-69
2022/07/17 12:26:27;;;;;;;1.77;0.70;;;;;;;;;;4988898;28;20100;-70
2022/07/17 12:28:53;;;;;;;3.70;0.80;;;;;;;;;;4989864;28;20173;-70
2022/07/17 12:31:20;;;;;;;5.47;1.10;;;;;;;;;;4990558;28;20030;-68
2022/07/17 12:33:45;;;;;;;5.15;0.98;;;;;;;;;;4990509;28;20030;-69
2022/07/17 12:36:10;;;;;;;3.60;0.90;;;;;;;;;;4989680;28;20025;-68
2022/07/17 12:38:35;;;;;;;2.90;1.10;;;;;;;;;;4990391;28;20348;-69
2022/07/17 12:41:00;;;;;;;5.38;0.95;;;;;;;;;;4988796;28;20026;-69
2022/07/17 12:43:26;;;;;;;4.50;0.80;;;;;;;;;;4986589;28;20046;-69
2022/07/17 12:45:51;;;;;;;8.82;1.25;;;;;;;;;;4988083;28;20301;-68
2022/07/17 12:48:16;;;;;;;2.65;1.15;;;;;;;;;;4989289;28;20387;-69
2022/07/17 12:50:41;;;;;;;2.17;0.68;;;;;;;;;;4986312;28;20048;-69
2022/07/17 12:53:07;;;;;;;1.80;0.83;;;;;;;;;;4987857;28;20030;-69
2022/07/17 12:55:32;;;;;;;6.73;1.10;;;;;;;;;;4987297;28;20754;-69
2022/07/17 12:57:58;;;;;;;5.75;1.40;;;;;;;;;;4990002;28;20053;-69
2022/07/17 13:00:23;;;;;;;4.88;1.55;;;;;;;;;;4988692;28;20033;-69
2022/07/17 13:02:49;;;;;;;3.25;0.82;;;;;;;;;;4987769;28;20022;-69
2022/07/17 13:05:14;;;;;;;6.68;0.82;;;;;;;;;;4985945;28;20105;-69
2022/07/17 13:07:39;;;;;;;7.07;1.37;;;;;;;;;;4988920;28;20446;-69
2022/07/17 13:10:05;;;;;;;3.80;1.03;;;;;;;;;;4987135;28;20113;-70
2022/07/17 13:12:30;;;;;;;4.88;1.02;;;;;;;;;;4988396;28;20108;-70
2022/07/17 13:14:55;;;;;;;4.77;1.10;;;;;;;;;;4975012;28;20036;-69
2022/07/17 13:17:20;;;;;;;2.23;0.70;;;;;;;;;;4992917;28;20339;-69
2022/07/17 13:19:45;;;;;;;9.73;1.30;;;;;;;;;;4993627;28;20026;-69
2022/07/17 13:22:10;;;;;;;5.33;1.47;;;;;;;;;;4990931;28;20053;-69
2022/07/17 13:24:36;;;;;;;3.20;1.00;;;;;;;;;;4993749;28;20025;-69
2022/07/17 13:27:01;;;;;;;7.23;1.33;;;;;;;;;;4989775;28;20018;-69
2022/07/17 13:29:26;;;;;;;4.33;1.00;;;;;;;;;;4991721;28;20600;-69
2022/07/17 13:31:55;;;;;;;6.32;1.17;;;;;;;;;;4991668;28;21264;-69
2022/07/17 13:34:20;;;;;;;3.22;0.95;;;;;;;;;;4987648;28;20145;-69
2022/07/17 13:36:45;;;;;;;4.20;0.90;;;;;;;;;;4989404;28;20110;-69
2022/07/17 13:39:11;;;;;;;3.97;1.05;;;;;;;;;;4990867;28;20034;-69
2022/07/17 13:41:37;;;;;;;2.70;0.88;;;;;;;;;;4991181;28;20642;-69
2022/07/17 13:44:02;;;;;;;4.80;0.70;;;;;;;;;;4994733;28;20022;-69
2022/07/17 13:46:27;;;;;;;4.40;0.75;;;;;;;;;;4993741;28;20045;-69
2022/07/17 13:48:52;;;;;;;2.58;0.60;;;;;;;;;;4993131;28;20165;-69
2022/07/17 13:51:18;;;;;;;4.27;1.03;;;;;;;;;;4993203;28;20037;-69
2022/07/17 13:53:43;;;;;;;8.70;1.50;;;;;;;;;;4992499;28;20180;-69
2022/07/17 13:56:08;;;;;;;4.25;1.33;;;;;;;;;;4989892;28;20569;-69
2022/07/17 13:58:34;;;;;;;6.32;1.17;;;;;;;;;;4993642;28;20026;-69
2022/07/17 14:00:59;;;;;;;4.90;0.90;;;;;;;;;;4991411;28;20014;-69
2022/07/17 14:03:24;;;;;;;3.17;0.90;;;;;;;;;;4993013;28;20327;-68
2022/07/17 14:05:50;;;;;;;8.85;1.10;;;;;;;;;;4991981;28;20103;-69
2022/07/17 14:08:15;;;;;;;3.23;0.70;;;;;;;;;;4991853;28;20101;-69
2022/07/17 14:10:40;;;;;;;5.43;1.13;;;;;;;;;;4977045;28;20056;-69
2022/07/17 14:13:06;;;;;;;7.32;2.28;;;;;;;;;;4991212;28;20050;-68
2022/07/17 14:15:31;;;;;;;4.93;1.17;;;;;;;;;;4992810;28;20391;-69
2022/07/17 14:17:56;;;;;;;6.72;1.42;;;;;;;;;;4993457;28;20273;-70
2022/07/17 14:20:22;;;;;;;5.47;1.10;;;;;;;;;;4992513;28;20402;-70
2022/07/17 14:22:47;;;;;;;2.45;0.93;;;;;;;;;;4989178;28;20293;-70
2022/07/17 14:25:13;;;;;;;2.95;1.10;;;;;;;;;;4990833;28;20018;-70
2022/07/17 14:27:38;;;;;;;3.17;1.00;;;;;;;;;;4992599;28;20027;-70
2022/07/17 14:30:03;;;;;;;7.70;0.98;;;;;;;;;;4992345;28;20026;-70
2022/07/17 14:32:28;;;;;;;3.40;0.90;;;;;;;;;;4990757;28;20022;-70
2022/07/17 14:34:54;;;;;;;3.43;1.37;;;;;;;;;;4989815;28;20026;-70